sensor_id;sensor_type;location;lat;lon;timestamp;temperature;humidity
63313;DHT22;49442;45.640;13.812;2023-11-19T00:00:43;8.10;99.90
63313;DHT22;49442;45.640;13.812;2023-11-19T00:03:09;8.10;99.90
63313;DHT22;49442;45.640;13.812;2023-11-19T00:05:36;8.10;99.90
63313;DHT22;49442;45.640;13.812;2023-11-19T00:08:02;8.10;99.90
63313;DHT22;49442;45.640;13.812;2023-11-19T00:10:27;8.10;99.90
63313;DHT22;49442;45.640;13.812;2023-11-19T00:12:53;8.10;99.90
63313;DHT22;49442;45.640;13.812;2023-11-19T00:15:19;8.10;99.90
63313;DHT22;49442;45.640;13.812;2023-11-19T00:17:46;8.20;99.90
63313;DHT22;49442;45.640;13.812;2023-11-19T00:20:17;8.10;99.90
63313;DHT22;49442;45.640;13.812;2023-11-19T00:22:43;8.10;99.90
63313;DHT22;49442;45.640;13.812;2023-11-19T00:25:10;8.10;99.90
63313;DHT22;49442;45.640;13.812;2023-11-19T00:27:36;8.10;99.90
63313;DHT22;49442;45.640;13.812;2023-11-19T00:30:04;8.10;99.90
63313;DHT22;49442;45.640;13.812;2023-11-19T00:32:31;8.10;99.90
63313;DHT22;49442;45.640;13.812;2023-11-19T00:34:57;8.10;99.90
63313;DHT22;49442;45.640;13.812;2023-11-19T00:37:23;8.10;99.90
63313;DHT22;49442;45.640;13.812;2023-11-19T00:39:48;8.00;99.90
63313;DHT22;49442;45.640;13.812;2023-11-19T00:42:14;8.00;99.90
63313;DHT22;49442;45.640;13.812;2023-11-19T00:44:40;8.00;99.90
63313;DHT22;49442;45.640;13.812;2023-11-19T00:47:07;8.00;99.90
63313;DHT22;49442;45.640;13.812;2023-11-19T00:49:32;8.00;99.90
63313;DHT22;49442;45.640;13.812;2023-11-19T00:51:59;8.00;99.90
63313;DHT22;49442;45.640;13.812;2023-11-19T00:54:25;8.00;99.90
63313;DHT22;49442;45.640;13.812;2023-11-19T00:56:54;8.00;99.90
63313;DHT22;49442;45.640;13.812;2023-11-19T00:59:20;7.90;99.90
63313;DHT22;49442;45.640;13.812;2023-11-19T01:01:46;7.90;99.90
63313;DHT22;49442;45.640;13.812;2023-11-19T01:04:14;7.90;99.90
63313;DHT22;49442;45.640;13.812;2023-11-19T01:06:40;7.90;99.90
63313;DHT22;49442;45.640;13.812;2023-11-19T01:09:08;7.90;99.90
63313;DHT22;49442;45.640;13.812;2023-11-19T01:11:34;7.90;99.90
63313;DHT22;49442;45.640;13.812;2023-11-19T01:14:01;7.80;99.90
63313;DHT22;49442;45.640;13.812;2023-11-19T01:16:27;7.80;99.90
63313;DHT22;49442;45.640;13.812;2023-11-19T01:18:52;7.80;99.90
63313;DHT22;49442;45.640;13.812;2023-11-19T01:21:18;7.80;99.90
63313;DHT22;49442;45.640;13.812;2023-11-19T01:23:44;7.80;99.90
63313;DHT22;49442;45.640;13.812;2023-11-19T01:26:11;7.80;99.90
63313;DHT22;49442;45.640;13.812;2023-11-19T01:28:38;7.70;99.90
63313;DHT22;49442;45.640;13.812;2023-11-19T01:31:05;7.70;99.90
63313;DHT22;49442;45.640;13.812;2023-11-19T01:33:32;7.80;99.90
63313;DHT22;49442;45.640;13.812;2023-11-19T01:35:58;7.70;99.90
63313;DHT22;49442;45.640;13.812;2023-11-19T01:38:24;7.80;99.90
63313;DHT22;49442;45.640;13.812;2023-11-19T01:40:50;7.70;99.90
63313;DHT22;49442;45.640;13.812;2023-11-19T01:43:35;7.70;99.90
63313;DHT22;49442;45.640;13.812;2023-11-19T01:46:02;7.70;99.90
63313;DHT22;49442;45.640;13.812;2023-11-19T01:48:29;7.70;99.90
63313;DHT22;49442;45.640;13.812;2023-11-19T01:50:56;7.70;99.90
63313;DHT22;49442;45.640;13.812;2023-11-19T01:53:22;7.70;99.90
63313;DHT22;49442;45.640;13.812;2023-11-19T01:55:48;7.80;99.90
63313;DHT22;49442;45.640;13.812;2023-11-19T01:58:15;7.70;99.90
63313;DHT22;49442;45.640;13.812;2023-11-19T02:00:43;7.70;99.90
63313;DHT22;49442;45.640;13.812;2023-11-19T02:03:09;7.80;99.90
63313;DHT22;49442;45.640;13.812;2023-11-19T02:05:35;7.80;99.90
63313;DHT22;49442;45.640;13.812;2023-11-19T02:08:02;7.80;99.90
63313;DHT22;49442;45.640;13.812;2023-11-19T02:10:28;7.90;99.90
63313;DHT22;49442;45.640;13.812;2023-11-19T02:12:54;7.90;99.90
63313;DHT22;49442;45.640;13.812;2023-11-19T02:15:20;7.90;99.90
63313;DHT22;49442;45.640;13.812;2023-11-19T02:17:52;7.90;99.90
63313;DHT22;49442;45.640;13.812;2023-11-19T02:20:18;7.90;99.90
63313;DHT22;49442;45.640;13.812;2023-11-19T02:22:46;7.90;99.90
63313;DHT22;49442;45.640;13.812;2023-11-19T02:25:30;8.00;99.90
63313;DHT22;49442;45.640;13.812;2023-11-19T02:28:01;7.90;99.90
63313;DHT22;49442;45.640;13.812;2023-11-19T02:30:27;7.90;99.90
63313;DHT22;49442;45.640;13.812;2023-11-19T02:32:59;8.00;99.90
63313;DHT22;49442;45.640;13.812;2023-11-19T02:35:31;7.90;99.90
63313;DHT22;49442;45.640;13.812;2023-11-19T02:37:58;7.90;99.90
63313;DHT22;49442;45.640;13.812;2023-11-19T02:40:24;7.90;99.90
63313;DHT22;49442;45.640;13.812;2023-11-19T02:42:51;7.90;99.90
63313;DHT22;49442;45.640;13.812;2023-11-19T02:45:17;7.90;99.90
63313;DHT22;49442;45.640;13.812;2023-11-19T02:47:43;7.90;99.90
63313;DHT22;49442;45.640;13.812;2023-11-19T02:50:13;7.90;99.90
63313;DHT22;49442;45.640;13.812;2023-11-19T02:52:43;7.90;99.90
63313;DHT22;49442;45.640;13.812;2023-11-19T02:55:10;7.90;99.90
63313;DHT22;49442;45.640;13.812;2023-11-19T02:57:41;7.90;99.90
63313;DHT22;49442;45.640;13.812;2023-11-19T03:02:44;7.90;99.90
63313;DHT22;49442;45.640;13.812;2023-11-19T03:05:15;7.90;99.90
63313;DHT22;49442;45.640;13.812;2023-11-19T03:07:42;8.00;99.90
63313;DHT22;49442;45.640;13.812;2023-11-19T03:10:09;8.00;99.90
63313;DHT22;49442;45.640;13.812;2023-11-19T03:12:41;8.00;99.90
63313;DHT22;49442;45.640;13.812;2023-11-19T03:15:08;8.00;99.90
63313;DHT22;49442;45.640;13.812;2023-11-19T03:17:43;8.00;99.90
63313;DHT22;49442;45.640;13.812;2023-11-19T03:20:10;8.10;99.90
63313;DHT22;49442;45.640;13.812;2023-11-19T03:22:43;8.10;99.90
63313;DHT22;49442;45.640;13.812;2023-11-19T03:25:12;8.10;99.90
63313;DHT22;49442;45.640;13.812;2023-11-19T03:27:38;8.20;99.90
63313;DHT22;49442;45.640;13.812;2023-11-19T03:30:10;8.20;99.90
63313;DHT22;49442;45.640;13.812;2023-11-19T03:32:36;8.30;99.90
63313;DHT22;49442;45.640;13.812;2023-11-19T03:35:03;8.30;99.90
63313;DHT22;49442;45.640;13.812;2023-11-19T03:37:29;8.40;99.90
63313;DHT22;49442;45.640;13.812;2023-11-19T03:39:57;8.40;99.90
63313;DHT22;49442;45.640;13.812;2023-11-19T03:42:25;8.40;99.90
63313;DHT22;49442;45.640;13.812;2023-11-19T03:44:52;8.40;99.90
63313;DHT22;49442;45.640;13.812;2023-11-19T03:47:19;8.50;99.90
63313;DHT22;49442;45.640;13.812;2023-11-19T03:49:51;8.50;99.90
63313;DHT22;49442;45.640;13.812;2023-11-19T03:52:17;8.50;99.90
63313;DHT22;49442;45.640;13.812;2023-11-19T03:54:44;8.50;99.90
63313;DHT22;49442;45.640;13.812;2023-11-19T03:57:09;8.60;99.90
63313;DHT22;49442;45.640;13.812;2023-11-19T03:59:36;8.60;99.90
63313;DHT22;49442;45.640;13.812;2023-11-19T04:02:02;8.60;99.90
63313;DHT22;49442;45.640;13.812;2023-11-19T04:04:28;8.70;99.90
63313;DHT22;49442;45.640;13.812;2023-11-19T04:06:57;8.70;99.90
63313;DHT22;49442;45.640;13.812;2023-11-19T04:09:23;8.80;99.90
63313;DHT22;49442;45.640;13.812;2023-11-19T04:11:49;8.80;99.90
63313;DHT22;49442;45.640;13.812;2023-11-19T04:14:15;8.80;99.90
63313;DHT22;49442;45.640;13.812;2023-11-19T04:16:46;8.80;99.90
63313;DHT22;49442;45.640;13.812;2023-11-19T04:19:12;8.80;99.90
63313;DHT22;49442;45.640;13.812;2023-11-19T04:21:40;8.90;99.90
63313;DHT22;49442;45.640;13.812;2023-11-19T04:24:07;8.90;99.90
63313;DHT22;49442;45.640;13.812;2023-11-19T04:26:33;9.00;99.90
63313;DHT22;49442;45.640;13.812;2023-11-19T04:28:59;8.90;99.90
63313;DHT22;49442;45.640;13.812;2023-11-19T04:31:29;9.00;99.90
63313;DHT22;49442;45.640;13.812;2023-11-19T04:33:57;9.00;99.90
63313;DHT22;49442;45.640;13.812;2023-11-19T04:36:22;9.00;99.90
63313;DHT22;49442;45.640;13.812;2023-11-19T04:38:50;9.10;99.90
63313;DHT22;49442;45.640;13.812;2023-11-19T04:41:16;9.10;99.90
63313;DHT22;49442;45.640;13.812;2023-11-19T04:43:41;9.10;99.90
63313;DHT22;49442;45.640;13.812;2023-11-19T04:46:09;9.10;99.90
63313;DHT22;49442;45.640;13.812;2023-11-19T04:48:35;9.10;99.90
63313;DHT22;49442;45.640;13.812;2023-11-19T04:51:01;9.10;99.90
63313;DHT22;49442;45.640;13.812;2023-11-19T04:53:26;9.20;99.90
63313;DHT22;49442;45.640;13.812;2023-11-19T04:55:52;9.20;99.90
63313;DHT22;49442;45.640;13.812;2023-11-19T04:58:18;9.20;99.90
63313;DHT22;49442;45.640;13.812;2023-11-19T05:00:44;9.30;99.90
63313;DHT22;49442;45.640;13.812;2023-11-19T05:03:10;9.30;99.90
63313;DHT22;49442;45.640;13.812;2023-11-19T05:05:36;9.30;99.90
63313;DHT22;49442;45.640;13.812;2023-11-19T05:08:02;9.30;99.90
63313;DHT22;49442;45.640;13.812;2023-11-19T05:10:28;9.30;99.90
63313;DHT22;49442;45.640;13.812;2023-11-19T05:12:53;9.30;99.90
63313;DHT22;49442;45.640;13.812;2023-11-19T05:15:21;9.30;99.90
63313;DHT22;49442;45.640;13.812;2023-11-19T05:17:47;9.30;99.90
63313;DHT22;49442;45.640;13.812;2023-11-19T05:20:13;9.30;99.90
63313;DHT22;49442;45.640;13.812;2023-11-19T05:22:42;9.30;99.90
63313;DHT22;49442;45.640;13.812;2023-11-19T05:25:09;9.30;99.90
63313;DHT22;49442;45.640;13.812;2023-11-19T05:27:36;9.30;99.90
63313;DHT22;49442;45.640;13.812;2023-11-19T05:30:03;9.20;99.90
63313;DHT22;49442;45.640;13.812;2023-11-19T05:32:30;9.20;99.90
63313;DHT22;49442;45.640;13.812;2023-11-19T05:34:55;9.30;99.90
63313;DHT22;49442;45.640;13.812;2023-11-19T05:37:21;9.20;99.90
63313;DHT22;49442;45.640;13.812;2023-11-19T05:39:47;9.20;99.90
63313;DHT22;49442;45.640;13.812;2023-11-19T05:42:13;9.20;99.90
63313;DHT22;49442;45.640;13.812;2023-11-19T05:44:38;9.20;99.90
63313;DHT22;49442;45.640;13.812;2023-11-19T05:47:04;9.20;99.90
63313;DHT22;49442;45.640;13.812;2023-11-19T05:49:30;9.20;99.90
63313;DHT22;49442;45.640;13.812;2023-11-19T05:51:55;9.20;99.90
63313;DHT22;49442;45.640;13.812;2023-11-19T05:54:21;9.20;99.90
63313;DHT22;49442;45.640;13.812;2023-11-19T05:56:48;9.20;99.90
63313;DHT22;49442;45.640;13.812;2023-11-19T05:59:14;9.20;99.90
63313;DHT22;49442;45.640;13.812;2023-11-19T06:01:43;9.30;99.90
63313;DHT22;49442;45.640;13.812;2023-11-19T06:04:09;9.30;99.90
63313;DHT22;49442;45.640;13.812;2023-11-19T06:06:36;9.30;99.90
63313;DHT22;49442;45.640;13.812;2023-11-19T06:09:02;9.30;99.90
63313;DHT22;49442;45.640;13.812;2023-11-19T06:11:32;9.40;99.90
63313;DHT22;49442;45.640;13.812;2023-11-19T06:13:58;9.40;99.90
63313;DHT22;49442;45.640;13.812;2023-11-19T06:16:24;9.40;99.90
63313;DHT22;49442;45.640;13.812;2023-11-19T06:18:50;9.40;99.90
63313;DHT22;49442;45.640;13.812;2023-11-19T06:21:15;9.40;99.90
63313;DHT22;49442;45.640;13.812;2023-11-19T06:23:41;9.40;99.90
63313;DHT22;49442;45.640;13.812;2023-11-19T06:26:07;9.40;99.90
63313;DHT22;49442;45.640;13.812;2023-11-19T06:28:34;9.40;99.90
63313;DHT22;49442;45.640;13.812;2023-11-19T06:30:59;9.40;99.90
63313;DHT22;49442;45.640;13.812;2023-11-19T06:33:26;9.40;99.90
63313;DHT22;49442;45.640;13.812;2023-11-19T06:35:52;9.40;99.90
63313;DHT22;49442;45.640;13.812;2023-11-19T06:38:18;9.40;99.90
63313;DHT22;49442;45.640;13.812;2023-11-19T06:40:44;9.40;99.90
63313;DHT22;49442;45.640;13.812;2023-11-19T06:43:09;9.40;99.90
63313;DHT22;49442;45.640;13.812;2023-11-19T06:45:35;9.50;99.90
63313;DHT22;49442;45.640;13.812;2023-11-19T06:48:05;9.50;99.90
63313;DHT22;49442;45.640;13.812;2023-11-19T06:50:32;9.50;99.90
63313;DHT22;49442;45.640;13.812;2023-11-19T06:52:57;9.60;99.90
63313;DHT22;49442;45.640;13.812;2023-11-19T06:55:23;9.60;99.90
63313;DHT22;49442;45.640;13.812;2023-11-19T06:57:49;9.70;99.90
63313;DHT22;49442;45.640;13.812;2023-11-19T07:00:15;9.70;99.90
63313;DHT22;49442;45.640;13.812;2023-11-19T07:02:40;9.80;99.90
63313;DHT22;49442;45.640;13.812;2023-11-19T07:05:06;10.00;99.90
63313;DHT22;49442;45.640;13.812;2023-11-19T07:07:33;10.10;99.90
63313;DHT22;49442;45.640;13.812;2023-11-19T07:09:59;10.20;99.90
63313;DHT22;49442;45.640;13.812;2023-11-19T07:12:25;10.20;99.90
63313;DHT22;49442;45.640;13.812;2023-11-19T07:14:52;10.40;99.90
63313;DHT22;49442;45.640;13.812;2023-11-19T07:17:18;10.40;99.90
63313;DHT22;49442;45.640;13.812;2023-11-19T07:19:54;10.50;99.90
63313;DHT22;49442;45.640;13.812;2023-11-19T07:22:20;10.50;99.90
63313;DHT22;49442;45.640;13.812;2023-11-19T07:24:46;10.50;99.90
63313;DHT22;49442;45.640;13.812;2023-11-19T07:27:11;10.50;99.90
63313;DHT22;49442;45.640;13.812;2023-11-19T07:29:38;10.50;99.90
63313;DHT22;49442;45.640;13.812;2023-11-19T07:32:04;10.60;99.90
63313;DHT22;49442;45.640;13.812;2023-11-19T07:34:31;10.60;99.90
63313;DHT22;49442;45.640;13.812;2023-11-19T07:36:57;10.60;99.90
63313;DHT22;49442;45.640;13.812;2023-11-19T07:39:25;10.70;99.90
63313;DHT22;49442;45.640;13.812;2023-11-19T07:41:50;10.80;99.90
63313;DHT22;49442;45.640;13.812;2023-11-19T07:44:16;10.90;99.90
63313;DHT22;49442;45.640;13.812;2023-11-19T07:46:42;11.10;99.90
63313;DHT22;49442;45.640;13.812;2023-11-19T07:49:07;11.20;99.90
63313;DHT22;49442;45.640;13.812;2023-11-19T07:51:33;11.30;99.90
63313;DHT22;49442;45.640;13.812;2023-11-19T07:53:59;11.50;99.90
63313;DHT22;49442;45.640;13.812;2023-11-19T07:56:24;11.70;99.90
63313;DHT22;49442;45.640;13.812;2023-11-19T07:58:50;11.90;99.90
63313;DHT22;49442;45.640;13.812;2023-11-19T08:01:16;11.90;99.90
63313;DHT22;49442;45.640;13.812;2023-11-19T08:03:42;11.80;99.90
63313;DHT22;49442;45.640;13.812;2023-11-19T08:06:08;11.80;99.90
63313;DHT22;49442;45.640;13.812;2023-11-19T08:08:33;11.80;99.90
63313;DHT22;49442;45.640;13.812;2023-11-19T08:11:00;11.90;99.90
63313;DHT22;49442;45.640;13.812;2023-11-19T08:13:26;12.00;99.90
63313;DHT22;49442;45.640;13.812;2023-11-19T08:15:52;12.50;99.90
63313;DHT22;49442;45.640;13.812;2023-11-19T08:18:17;12.90;99.90
63313;DHT22;49442;45.640;13.812;2023-11-19T08:20:44;13.60;99.90
63313;DHT22;49442;45.640;13.812;2023-11-19T08:23:10;13.40;99.90
63313;DHT22;49442;45.640;13.812;2023-11-19T08:25:36;13.40;99.90
63313;DHT22;49442;45.640;13.812;2023-11-19T08:28:02;13.40;99.90
63313;DHT22;49442;45.640;13.812;2023-11-19T08:30:29;13.50;99.90
63313;DHT22;49442;45.640;13.812;2023-11-19T08:32:55;15.60;99.90
63313;DHT22;49442;45.640;13.812;2023-11-19T08:35:21;15.70;99.90
63313;DHT22;49442;45.640;13.812;2023-11-19T08:37:47;15.20;99.90
63313;DHT22;49442;45.640;13.812;2023-11-19T08:40:13;14.80;99.90
63313;DHT22;49442;45.640;13.812;2023-11-19T08:42:40;14.20;99.90
63313;DHT22;49442;45.640;13.812;2023-11-19T08:45:07;14.00;99.90
63313;DHT22;49442;45.640;13.812;2023-11-19T08:47:34;15.00;99.90
63313;DHT22;49442;45.640;13.812;2023-11-19T08:50:00;14.80;99.90
63313;DHT22;49442;45.640;13.812;2023-11-19T08:52:25;15.40;99.90
63313;DHT22;49442;45.640;13.812;2023-11-19T08:54:51;15.90;99.90
63313;DHT22;49442;45.640;13.812;2023-11-19T08:57:16;15.60;99.90
63313;DHT22;49442;45.640;13.812;2023-11-19T08:59:42;15.30;99.90
63313;DHT22;49442;45.640;13.812;2023-11-19T09:02:09;14.80;99.90
63313;DHT22;49442;45.640;13.812;2023-11-19T09:04:34;14.40;99.90
63313;DHT22;49442;45.640;13.812;2023-11-19T09:07:01;14.00;99.90
63313;DHT22;49442;45.640;13.812;2023-11-19T09:09:27;13.80;99.90
63313;DHT22;49442;45.640;13.812;2023-11-19T09:11:54;13.80;99.90
63313;DHT22;49442;45.640;13.812;2023-11-19T09:14:20;14.10;99.90
63313;DHT22;49442;45.640;13.812;2023-11-19T09:16:49;14.50;99.90
63313;DHT22;49442;45.640;13.812;2023-11-19T09:19:15;14.70;99.90
63313;DHT22;49442;45.640;13.812;2023-11-19T09:21:43;14.60;99.90
63313;DHT22;49442;45.640;13.812;2023-11-19T09:24:08;15.30;99.90
63313;DHT22;49442;45.640;13.812;2023-11-19T09:26:34;15.50;99.90
63313;DHT22;49442;45.640;13.812;2023-11-19T09:29:01;15.60;99.90
63313;DHT22;49442;45.640;13.812;2023-11-19T09:31:27;15.30;99.90
63313;DHT22;49442;45.640;13.812;2023-11-19T09:33:53;14.90;99.90
63313;DHT22;49442;45.640;13.812;2023-11-19T09:36:19;14.60;99.90
63313;DHT22;49442;45.640;13.812;2023-11-19T09:38:45;14.30;99.90
63313;DHT22;49442;45.640;13.812;2023-11-19T09:41:11;14.10;99.90
63313;DHT22;49442;45.640;13.812;2023-11-19T09:43:41;13.80;99.90
63313;DHT22;49442;45.640;13.812;2023-11-19T09:46:09;13.60;99.90
63313;DHT22;49442;45.640;13.812;2023-11-19T09:48:38;13.40;99.90
63313;DHT22;49442;45.640;13.812;2023-11-19T09:51:08;13.40;99.90
63313;DHT22;49442;45.640;13.812;2023-11-19T09:53:35;13.40;99.90
63313;DHT22;49442;45.640;13.812;2023-11-19T09:56:03;13.40;99.90
63313;DHT22;49442;45.640;13.812;2023-11-19T09:58:29;13.40;99.90
63313;DHT22;49442;45.640;13.812;2023-11-19T10:00:56;13.40;99.90
63313;DHT22;49442;45.640;13.812;2023-11-19T10:03:26;13.30;99.90
63313;DHT22;49442;45.640;13.812;2023-11-19T10:05:53;13.30;99.90
63313;DHT22;49442;45.640;13.812;2023-11-19T10:08:20;13.20;99.90
63313;DHT22;49442;45.640;13.812;2023-11-19T10:10:46;13.10;99.90
63313;DHT22;49442;45.640;13.812;2023-11-19T10:13:12;13.10;99.90
63313;DHT22;49442;45.640;13.812;2023-11-19T10:15:40;13.10;99.90
63313;DHT22;49442;45.640;13.812;2023-11-19T10:18:06;13.10;99.90
63313;DHT22;49442;45.640;13.812;2023-11-19T10:20:44;13.00;99.90
63313;DHT22;49442;45.640;13.812;2023-11-19T10:23:10;13.00;99.90
63313;DHT22;49442;45.640;13.812;2023-11-19T10:25:37;12.90;99.90
63313;DHT22;49442;45.640;13.812;2023-11-19T10:28:02;12.90;99.90
63313;DHT22;49442;45.640;13.812;2023-11-19T10:30:29;12.90;99.90
63313;DHT22;49442;45.640;13.812;2023-11-19T10:33:09;12.90;99.90
63313;DHT22;49442;45.640;13.812;2023-11-19T10:35:56;12.90;99.90
63313;DHT22;49442;45.640;13.812;2023-11-19T10:38:22;13.00;99.90
63313;DHT22;49442;45.640;13.812;2023-11-19T10:40:49;13.00;99.90
63313;DHT22;49442;45.640;13.812;2023-11-19T10:43:16;13.00;99.90
63313;DHT22;49442;45.640;13.812;2023-11-19T10:45:43;13.10;99.90
63313;DHT22;49442;45.640;13.812;2023-11-19T10:48:09;13.10;99.90
63313;DHT22;49442;45.640;13.812;2023-11-19T10:50:39;13.20;99.90
63313;DHT22;49442;45.640;13.812;2023-11-19T10:53:06;13.20;99.90
63313;DHT22;49442;45.640;13.812;2023-11-19T10:55:36;13.20;99.90
63313;DHT22;49442;45.640;13.812;2023-11-19T10:58:09;13.30;99.90
63313;DHT22;49442;45.640;13.812;2023-11-19T11:00:48;13.40;99.90
63313;DHT22;49442;45.640;13.812;2023-11-19T11:03:23;13.50;99.90
63313;DHT22;49442;45.640;13.812;2023-11-19T11:05:51;13.60;99.90
63313;DHT22;49442;45.640;13.812;2023-11-19T11:08:18;13.70;99.90
63313;DHT22;49442;45.640;13.812;2023-11-19T11:10:54;13.70;99.90
63313;DHT22;49442;45.640;13.812;2023-11-19T11:13:23;13.80;99.90
63313;DHT22;49442;45.640;13.812;2023-11-19T11:15:58;13.80;99.90
63313;DHT22;49442;45.640;13.812;2023-11-19T11:18:24;13.70;99.90
63313;DHT22;49442;45.640;13.812;2023-11-19T11:21:00;13.70;99.90
63313;DHT22;49442;45.640;13.812;2023-11-19T11:23:52;13.70;99.90
63313;DHT22;49442;45.640;13.812;2023-11-19T11:34:40;14.00;99.90
63313;DHT22;49442;45.640;13.812;2023-11-19T11:37:30;14.20;99.90
63313;DHT22;49442;45.640;13.812;2023-11-19T11:39:58;14.30;99.90
63313;DHT22;49442;45.640;13.812;2023-11-19T11:50:11;14.50;99.90
63313;DHT22;49442;45.640;13.812;2023-11-19T11:55:34;14.60;99.90
63313;DHT22;49442;45.640;13.812;2023-11-19T11:58:02;14.50;99.90
63313;DHT22;49442;45.640;13.812;2023-11-19T12:00:30;14.40;99.90
63313;DHT22;49442;45.640;13.812;2023-11-19T12:02:58;14.50;99.90
63313;DHT22;49442;45.640;13.812;2023-11-19T12:05:24;14.50;99.90
63313;DHT22;49442;45.640;13.812;2023-11-19T12:08:04;14.60;99.90
63313;DHT22;49442;45.640;13.812;2023-11-19T12:10:36;14.70;99.90
63313;DHT22;49442;45.640;13.812;2023-11-19T12:13:05;14.70;99.90
63313;DHT22;49442;45.640;13.812;2023-11-19T12:15:33;14.70;99.90
63313;DHT22;49442;45.640;13.812;2023-11-19T12:18:19;14.70;99.90
63313;DHT22;49442;45.640;13.812;2023-11-19T12:20:45;14.60;99.90
63313;DHT22;49442;45.640;13.812;2023-11-19T12:23:11;14.40;99.90
63313;DHT22;49442;45.640;13.812;2023-11-19T12:25:37;14.20;99.90
63313;DHT22;49442;45.640;13.812;2023-11-19T12:28:02;14.00;99.90
63313;DHT22;49442;45.640;13.812;2023-11-19T12:30:29;13.90;99.90
63313;DHT22;49442;45.640;13.812;2023-11-19T12:32:55;13.80;99.90
63313;DHT22;49442;45.640;13.812;2023-11-19T12:35:22;13.90;99.90
63313;DHT22;49442;45.640;13.812;2023-11-19T12:37:49;14.00;99.90
63313;DHT22;49442;45.640;13.812;2023-11-19T12:42:41;14.10;99.90
63313;DHT22;49442;45.640;13.812;2023-11-19T12:45:07;14.10;99.90
63313;DHT22;49442;45.640;13.812;2023-11-19T12:47:40;14.20;99.90
63313;DHT22;49442;45.640;13.812;2023-11-19T12:50:07;14.10;99.90
63313;DHT22;49442;45.640;13.812;2023-11-19T12:52:35;14.10;99.90
63313;DHT22;49442;45.640;13.812;2023-11-19T12:55:01;14.00;99.90
63313;DHT22;49442;45.640;13.812;2023-11-19T13:00:04;13.90;99.90
63313;DHT22;49442;45.640;13.812;2023-11-19T13:02:47;13.90;99.90
63313;DHT22;49442;45.640;13.812;2023-11-19T13:05:33;13.90;99.90
63313;DHT22;49442;45.640;13.812;2023-11-19T13:08:07;14.00;99.90
63313;DHT22;49442;45.640;13.812;2023-11-19T13:10:54;14.10;99.90
63313;DHT22;49442;45.640;13.812;2023-11-19T13:13:20;14.20;99.90
63313;DHT22;49442;45.640;13.812;2023-11-19T13:15:46;14.30;99.90
63313;DHT22;49442;45.640;13.812;2023-11-19T13:18:12;14.30;99.90
63313;DHT22;49442;45.640;13.812;2023-11-19T13:20:38;14.40;99.90
63313;DHT22;49442;45.640;13.812;2023-11-19T13:23:05;14.40;99.90
63313;DHT22;49442;45.640;13.812;2023-11-19T13:25:33;14.30;99.90
63313;DHT22;49442;45.640;13.812;2023-11-19T13:27:59;14.40;99.90
63313;DHT22;49442;45.640;13.812;2023-11-19T13:30:25;14.60;99.90
63313;DHT22;49442;45.640;13.812;2023-11-19T13:32:51;14.60;99.90
63313;DHT22;49442;45.640;13.812;2023-11-19T13:35:18;14.70;99.90
63313;DHT22;49442;45.640;13.812;2023-11-19T13:37:46;14.80;99.90
63313;DHT22;49442;45.640;13.812;2023-11-19T13:40:13;14.80;99.90
63313;DHT22;49442;45.640;13.812;2023-11-19T13:42:40;14.80;99.90
63313;DHT22;49442;45.640;13.812;2023-11-19T13:45:16;14.70;99.90
63313;DHT22;49442;45.640;13.812;2023-11-19T13:47:45;14.60;99.90
63313;DHT22;49442;45.640;13.812;2023-11-19T13:50:12;14.60;99.90
63313;DHT22;49442;45.640;13.812;2023-11-19T13:52:39;14.80;99.90
63313;DHT22;49442;45.640;13.812;2023-11-19T13:55:07;14.80;99.90
63313;DHT22;49442;45.640;13.812;2023-11-19T13:57:34;14.70;99.90
63313;DHT22;49442;45.640;13.812;2023-11-19T14:00:03;14.60;99.90
63313;DHT22;49442;45.640;13.812;2023-11-19T14:02:32;14.50;99.90
63313;DHT22;49442;45.640;13.812;2023-11-19T14:04:57;14.50;99.90
63313;DHT22;49442;45.640;13.812;2023-11-19T14:07:23;14.50;99.90
63313;DHT22;49442;45.640;13.812;2023-11-19T14:09:49;14.40;99.90
63313;DHT22;49442;45.640;13.812;2023-11-19T14:12:15;14.30;99.90
63313;DHT22;49442;45.640;13.812;2023-11-19T14:14:41;14.30;99.90
63313;DHT22;49442;45.640;13.812;2023-11-19T14:17:08;14.20;99.90
63313;DHT22;49442;45.640;13.812;2023-11-19T14:19:33;14.20;99.90
63313;DHT22;49442;45.640;13.812;2023-11-19T14:21:59;14.20;99.90
63313;DHT22;49442;45.640;13.812;2023-11-19T14:24:26;14.20;99.90
63313;DHT22;49442;45.640;13.812;2023-11-19T14:26:51;14.00;99.90
63313;DHT22;49442;45.640;13.812;2023-11-19T14:29:17;13.90;99.90
63313;DHT22;49442;45.640;13.812;2023-11-19T14:31:43;13.80;99.90
63313;DHT22;49442;45.640;13.812;2023-11-19T14:34:09;13.70;99.90
63313;DHT22;49442;45.640;13.812;2023-11-19T14:36:34;13.60;99.90
63313;DHT22;49442;45.640;13.812;2023-11-19T14:39:00;13.50;99.90
63313;DHT22;49442;45.640;13.812;2023-11-19T14:41:26;13.40;99.90
63313;DHT22;49442;45.640;13.812;2023-11-19T14:43:52;13.40;99.90
63313;DHT22;49442;45.640;13.812;2023-11-19T14:46:18;13.20;99.90
63313;DHT22;49442;45.640;13.812;2023-11-19T14:48:43;13.00;99.90
63313;DHT22;49442;45.640;13.812;2023-11-19T14:51:09;12.90;99.90
63313;DHT22;49442;45.640;13.812;2023-11-19T14:53:35;12.70;99.90
63313;DHT22;49442;45.640;13.812;2023-11-19T14:56:01;12.60;99.90
63313;DHT22;49442;45.640;13.812;2023-11-19T14:58:26;12.50;99.90
63313;DHT22;49442;45.640;13.812;2023-11-19T15:00:52;12.50;99.90
63313;DHT22;49442;45.640;13.812;2023-11-19T15:03:18;12.40;99.90
63313;DHT22;49442;45.640;13.812;2023-11-19T15:05:48;12.30;99.90
63313;DHT22;49442;45.640;13.812;2023-11-19T15:08:14;12.20;99.90
63313;DHT22;49442;45.640;13.812;2023-11-19T15:10:44;12.10;99.90
63313;DHT22;49442;45.640;13.812;2023-11-19T15:13:10;12.00;99.90
63313;DHT22;49442;45.640;13.812;2023-11-19T15:15:36;11.90;99.90
63313;DHT22;49442;45.640;13.812;2023-11-19T15:18:04;11.80;99.90
63313;DHT22;49442;45.640;13.812;2023-11-19T15:20:30;11.60;99.90
63313;DHT22;49442;45.640;13.812;2023-11-19T15:22:57;11.60;99.90
63313;DHT22;49442;45.640;13.812;2023-11-19T15:25:23;11.50;99.90
63313;DHT22;49442;45.640;13.812;2023-11-19T15:27:52;11.30;99.90
63313;DHT22;49442;45.640;13.812;2023-11-19T15:30:17;11.20;99.90
63313;DHT22;49442;45.640;13.812;2023-11-19T15:32:43;11.10;99.90
63313;DHT22;49442;45.640;13.812;2023-11-19T15:35:09;11.00;99.90
63313;DHT22;49442;45.640;13.812;2023-11-19T15:37:38;10.90;99.90
63313;DHT22;49442;45.640;13.812;2023-11-19T15:40:12;10.90;99.90
63313;DHT22;49442;45.640;13.812;2023-11-19T15:42:41;10.80;99.90
63313;DHT22;49442;45.640;13.812;2023-11-19T15:45:09;10.70;99.90
63313;DHT22;49442;45.640;13.812;2023-11-19T15:47:35;10.60;99.90
63313;DHT22;49442;45.640;13.812;2023-11-19T15:50:02;10.50;99.90